createdAt,value
2018-09-10T00:01:34.063Z,13.13
2018-09-10T00:04:09.782Z,12.30
2018-09-10T00:06:38.591Z,12.30
2018-09-10T00:09:08.527Z,12.73
2018-09-10T00:11:37.911Z,12.80
2018-09-10T00:14:06.869Z,12.20
2018-09-10T00:16:36.080Z,14.00
2018-09-10T00:19:04.855Z,13.40
2018-09-10T00:21:33.659Z,13.07
2018-09-10T00:24:02.466Z,15.47
2018-09-10T00:26:31.619Z,15.73
2018-09-10T00:29:00.525Z,14.00
2018-09-10T00:31:29.498Z,14.20
2018-09-10T00:33:58.756Z,12.73
2018-09-10T00:36:27.934Z,13.33
2018-09-10T00:38:56.690Z,12.20
2018-09-10T00:41:25.462Z,13.33
2018-09-10T00:43:54.258Z,12.97
2018-09-10T00:46:23.079Z,12.33
2018-09-10T00:48:52.172Z,14.53
2018-09-10T00:51:20.974Z,14.20
2018-09-10T00:53:49.850Z,14.83
2018-09-10T00:56:18.642Z,14.73
2018-09-10T00:58:47.390Z,15.63
2018-09-10T01:01:16.536Z,14.27
2018-09-10T01:03:45.318Z,15.00
2018-09-10T01:06:14.134Z,14.40
2018-09-10T01:08:42.965Z,15.87
2018-09-10T01:11:11.800Z,15.03
2018-09-10T01:13:40.740Z,15.10
2018-09-10T01:16:10.040Z,14.47
2018-09-10T01:18:38.789Z,17.20
2018-09-10T01:21:07.616Z,16.30
2018-09-10T01:23:36.392Z,15.30
2018-09-10T01:26:05.393Z,15.87
2018-09-10T01:28:34.344Z,15.93
2018-09-10T01:31:03.179Z,15.53
2018-09-10T01:33:37.435Z,16.40
2018-09-10T01:36:06.285Z,16.17
2018-09-10T01:38:35.104Z,15.27
2018-09-10T01:41:03.928Z,15.80
2018-09-10T01:43:32.745Z,16.80
2018-09-10T01:46:01.746Z,16.80
2018-09-10T01:48:30.615Z,17.80
2018-09-10T01:50:59.386Z,18.67
2018-09-10T01:53:28.155Z,17.70
2018-09-10T01:55:56.932Z,18.17
2018-09-10T01:58:25.676Z,18.93
2018-09-10T02:00:54.599Z,18.30
2018-09-10T02:03:23.381Z,19.20
2018-09-10T02:05:52.225Z,18.80
2018-09-10T02:08:20.991Z,18.70
2018-09-10T02:10:49.798Z,18.47
2018-09-10T02:13:18.872Z,18.57
2018-09-10T02:15:49.489Z,19.20
2018-09-10T02:18:19.104Z,18.30
2018-09-10T02:20:48.376Z,17.60
2018-09-10T02:23:17.429Z,18.80
2018-09-10T02:25:46.325Z,19.23
2018-09-10T02:28:15.470Z,17.80
2018-09-10T02:30:44.201Z,19.53
2018-09-10T02:33:13.000Z,17.53
2018-09-10T02:35:41.803Z,17.60
2018-09-10T02:38:10.602Z,19.50
2018-09-10T02:40:47.626Z,18.47
2018-09-10T02:43:16.396Z,19.17
2018-09-10T02:45:45.159Z,19.77
2018-09-10T02:48:13.952Z,18.40
2018-09-10T02:50:42.737Z,18.23
2018-09-10T02:53:11.907Z,19.37
2018-09-10T02:55:40.717Z,16.97
2018-09-10T02:58:09.504Z,19.53
2018-09-10T03:00:38.349Z,19.63
2018-09-10T03:03:07.085Z,18.47
2018-09-10T03:05:36.167Z,18.20
2018-09-10T03:08:05.000Z,19.50
2018-09-10T03:10:33.860Z,19.53
2018-09-10T03:13:02.691Z,19.50
2018-09-10T03:15:31.483Z,19.37
2018-09-10T03:18:00.489Z,18.57
2018-09-10T03:20:29.266Z,19.70
2018-09-10T03:22:58.242Z,17.77
2018-09-10T03:25:27.011Z,16.37
2018-09-10T03:27:55.762Z,16.40
2018-09-10T03:30:24.648Z,17.30
2018-09-10T03:32:53.555Z,16.37
2018-09-10T03:35:22.377Z,17.00
2018-09-10T03:37:51.107Z,17.90
2018-09-10T03:40:19.979Z,16.27
2018-09-10T03:42:48.930Z,16.87
2018-09-10T03:45:17.772Z,15.33
2018-09-10T03:47:46.534Z,16.10
2018-09-10T03:50:15.326Z,16.37
2018-09-10T03:52:44.123Z,16.30
2018-09-10T03:55:13.022Z,15.37
2018-09-10T03:57:41.875Z,15.30
2018-09-10T04:00:10.684Z,16.70
2018-09-10T04:02:39.561Z,14.70
2018-09-10T04:05:09.010Z,16.13
2018-09-10T04:07:37.915Z,15.60
2018-09-10T04:10:06.740Z,16.00
2018-09-10T04:12:35.531Z,16.30
2018-09-10T04:15:04.590Z,14.17
2018-09-10T04:17:33.640Z,15.80
2018-09-10T04:20:16.952Z,16.17
2018-09-10T04:22:45.733Z,15.10
2018-09-10T04:25:14.615Z,15.10
2018-09-10T04:27:43.764Z,14.90
2018-09-10T04:30:14.977Z,14.47
2018-09-10T04:32:43.868Z,15.37
2018-09-10T04:35:13.079Z,14.13
2018-09-10T04:37:41.940Z,15.00
2018-09-10T04:40:11.042Z,16.40
2018-09-10T04:42:39.804Z,15.80
2018-09-10T04:45:08.887Z,16.40
2018-09-10T04:47:37.692Z,17.40
2018-09-10T04:50:06.723Z,17.90
2018-09-10T04:52:35.644Z,16.10
2018-09-10T04:55:04.690Z,17.63
2018-09-10T04:57:33.469Z,15.80
2018-09-10T05:00:02.265Z,15.77
2018-09-10T05:02:31.739Z,14.20
2018-09-10T05:05:00.938Z,16.80
2018-09-10T05:07:30.495Z,16.60
2018-09-10T05:09:59.855Z,14.40
2018-09-10T05:12:28.605Z,15.97
2018-09-10T05:14:57.413Z,13.90
2018-09-10T05:17:26.216Z,14.47
2018-09-10T05:19:55.205Z,14.13
2018-09-10T05:22:24.106Z,14.50
2018-09-10T05:24:52.887Z,15.73
2018-09-10T05:27:21.746Z,14.03
2018-09-10T05:29:50.494Z,14.77
2018-09-10T05:32:19.346Z,14.93
2018-09-10T05:34:48.133Z,12.53
2018-09-10T05:37:16.906Z,13.13
2018-09-10T05:39:45.691Z,12.60
2018-09-10T05:42:14.500Z,13.10
2018-09-10T05:44:43.436Z,12.80
2018-09-10T05:47:12.305Z,11.87
2018-09-10T05:49:41.126Z,12.63
2018-09-10T05:52:09.918Z,9.90
2018-09-10T05:54:38.679Z,11.70
2018-09-10T05:57:07.634Z,10.00
2018-09-10T05:59:36.436Z,10.50
2018-09-10T06:02:05.297Z,9.93
2018-09-10T06:04:34.132Z,10.27
2018-09-10T06:07:02.908Z,9.60
2018-09-10T06:09:31.881Z,8.97
2018-09-10T06:12:00.621Z,9.30
2018-09-10T06:14:29.430Z,9.50
2018-09-10T06:16:58.169Z,9.60
2018-09-10T06:19:26.969Z,8.20
2018-09-10T06:21:55.849Z,8.60
2018-09-10T06:24:24.622Z,7.87
2018-09-10T06:26:53.452Z,7.80
2018-09-10T06:29:22.465Z,8.30
2018-09-10T06:31:51.311Z,8.17
2018-09-10T06:34:20.364Z,8.17
2018-09-10T06:36:49.054Z,6.90
2018-09-10T06:39:19.241Z,6.47
2018-09-10T06:41:49.051Z,6.70
2018-09-10T06:44:18.560Z,7.70
2018-09-10T06:46:47.557Z,6.60
2018-09-10T06:49:17.483Z,7.23
2018-09-10T06:51:47.498Z,6.83
2018-09-10T06:54:17.480Z,6.13
2018-09-10T06:56:46.778Z,6.37
2018-09-10T06:59:16.451Z,6.47
2018-09-10T07:01:46.876Z,7.13
2018-09-10T07:04:16.382Z,6.27
2018-09-10T07:06:46.300Z,6.30
2018-09-10T07:09:15.190Z,6.13
2018-09-10T07:11:44.005Z,6.30
2018-09-10T07:14:13.839Z,6.03
2018-09-10T07:16:43.407Z,5.27
2018-09-10T07:19:12.508Z,6.10
2018-09-10T07:21:42.255Z,5.80
2018-09-10T07:24:12.226Z,5.40
2018-09-10T07:26:42.581Z,5.70
2018-09-10T07:29:12.230Z,5.77
2018-09-10T07:31:42.616Z,5.50
2018-09-10T07:34:12.535Z,6.33
2018-09-10T07:36:42.825Z,5.97
2018-09-10T07:39:13.235Z,5.67
2018-09-10T07:41:42.312Z,6.03
2018-09-10T07:44:11.248Z,6.77
2018-09-10T07:46:40.178Z,6.33
2018-09-10T07:49:08.981Z,6.63
2018-09-10T07:51:38.805Z,6.07
2018-09-10T07:54:07.880Z,6.83
2018-09-10T07:56:36.708Z,7.07
2018-09-10T07:59:06.009Z,6.67
2018-09-10T08:01:36.236Z,6.67
2018-09-10T08:04:05.061Z,7.50
2018-09-10T08:06:34.385Z,7.80
2018-09-10T08:09:03.660Z,7.90
2018-09-10T08:11:32.844Z,6.73
2018-09-10T08:14:03.043Z,7.50
2018-09-10T08:16:31.998Z,7.17
2018-09-10T08:19:00.878Z,7.10
2018-09-10T08:21:29.834Z,6.40
2018-09-10T08:23:58.892Z,7.70
2018-09-10T08:26:28.179Z,7.40
2018-09-10T08:28:57.119Z,7.70
2018-09-10T08:31:25.931Z,7.87
2018-09-10T08:33:55.363Z,7.20
2018-09-10T08:36:24.282Z,7.60
2018-09-10T08:38:53.265Z,7.53
2018-09-10T08:41:22.123Z,7.40
2018-09-10T08:43:50.904Z,6.80
2018-09-10T08:46:19.794Z,7.50
2018-09-10T08:48:48.853Z,6.90
2018-09-10T08:51:18.560Z,6.70
2018-09-10T08:53:48.567Z,8.00
2018-09-10T08:56:17.664Z,7.87
2018-09-10T08:58:48.046Z,7.50
2018-09-10T09:01:17.170Z,8.37
2018-09-10T09:03:46.466Z,7.33
2018-09-10T09:06:15.910Z,8.47
2018-09-10T09:08:46.607Z,7.07
2018-09-10T09:11:15.564Z,7.00
2018-09-10T09:13:46.301Z,7.60
2018-09-10T09:16:15.235Z,7.73
2018-09-10T09:18:44.626Z,6.90
2018-09-10T09:21:13.687Z,7.73
2018-09-10T09:23:42.784Z,7.40
2018-09-10T09:26:11.843Z,7.10
2018-09-10T09:28:40.852Z,6.73
2018-09-10T09:31:10.007Z,6.30
2018-09-10T09:33:38.858Z,6.07
2018-09-10T09:36:13.060Z,6.87
2018-09-10T09:38:48.607Z,6.90
2018-09-10T09:41:23.182Z,7.20
2018-09-10T09:43:58.601Z,6.40
2018-09-10T09:46:27.608Z,6.40
2018-09-10T09:48:56.832Z,7.03
2018-09-10T09:51:28.252Z,6.67
2018-09-10T09:53:58.449Z,7.10
2018-09-10T09:56:27.514Z,7.87
2018-09-10T09:58:58.008Z,6.60
2018-09-10T10:01:33.843Z,6.07
2018-09-10T10:04:10.280Z,5.47
2018-09-10T10:06:39.250Z,6.03
2018-09-10T10:09:10.156Z,5.63
2018-09-10T10:11:39.863Z,5.73
2018-09-10T10:14:10.103Z,6.33
2018-09-10T10:16:39.382Z,7.30
2018-09-10T10:19:08.291Z,6.50
2018-09-10T10:21:37.277Z,5.90
2018-09-10T10:24:06.303Z,6.30
2018-09-10T10:26:36.175Z,6.70
2018-09-10T10:29:05.753Z,6.40
2018-09-10T10:31:34.603Z,5.30
2018-09-10T10:34:03.447Z,5.50
2018-09-10T10:36:34.949Z,5.10
2018-09-10T10:39:06.535Z,6.07
2018-09-10T10:41:37.384Z,5.97
2018-09-10T10:44:06.312Z,4.70
2018-09-10T10:46:35.315Z,5.73
2018-09-10T10:49:05.365Z,5.07
2018-09-10T10:51:34.209Z,5.37
2018-09-10T10:54:03.203Z,5.00
2018-09-10T10:56:32.027Z,4.67
2018-09-10T10:59:00.871Z,5.33
2018-09-10T11:01:30.170Z,5.33
2018-09-10T11:04:00.314Z,5.43
2018-09-10T11:06:30.371Z,5.27
2018-09-10T11:09:01.516Z,5.60
2018-09-10T11:11:30.673Z,4.40
2018-09-10T11:13:59.539Z,4.47
2018-09-10T11:16:28.348Z,3.80
2018-09-10T11:18:57.274Z,4.23
2018-09-10T11:21:27.366Z,4.33
2018-09-10T11:23:57.157Z,4.30
2018-09-10T11:26:27.947Z,5.50
2018-09-10T11:28:56.844Z,5.17
2018-09-10T11:31:28.035Z,4.40
2018-09-10T11:33:58.441Z,3.67
2018-09-10T11:36:28.984Z,4.13
2018-09-10T11:38:58.070Z,4.43
2018-09-10T11:41:26.876Z,3.93
2018-09-10T11:43:55.914Z,3.90
2018-09-10T11:46:24.802Z,4.37
2018-09-10T11:48:53.642Z,4.20
2018-09-10T11:51:23.893Z,4.70
2018-09-10T11:53:53.779Z,4.43
2018-09-10T11:56:29.722Z,4.80
2018-09-10T11:58:58.771Z,4.20
2018-09-10T12:01:27.643Z,4.67
2018-09-10T12:03:57.735Z,4.30
2018-09-10T12:06:28.151Z,4.70
2018-09-10T12:08:57.166Z,4.83
2018-09-10T12:11:27.216Z,4.23
2018-09-10T12:13:57.729Z,4.30
2018-09-10T12:16:27.917Z,4.50
2018-09-10T12:18:56.767Z,4.67
2018-09-10T12:21:25.700Z,4.50
2018-09-10T12:23:54.701Z,4.30
2018-09-10T12:26:25.302Z,4.50
2018-09-10T12:28:54.190Z,4.80
2018-09-10T12:31:23.022Z,4.90
2018-09-10T12:33:52.235Z,4.70
2018-09-10T12:36:21.076Z,4.33
2018-09-10T12:38:49.886Z,4.40
2018-09-10T12:41:19.059Z,4.37
2018-09-10T12:43:47.917Z,4.63
2018-09-10T12:46:16.799Z,3.93
2018-09-10T12:48:45.658Z,4.37
2018-09-10T12:51:14.505Z,4.50
2018-09-10T12:53:43.462Z,4.00
2018-09-10T12:56:13.029Z,4.33
2018-09-10T12:58:41.961Z,4.60
2018-09-10T13:01:11.491Z,4.03
2018-09-10T13:03:40.417Z,3.97
2018-09-10T13:06:09.514Z,3.63
2018-09-10T13:08:38.340Z,3.87
2018-09-10T13:11:19.313Z,4.00
2018-09-10T13:13:48.163Z,3.23
2018-09-10T13:16:17.275Z,3.70
2018-09-10T13:18:46.403Z,3.50
2018-09-10T13:21:15.263Z,3.60
2018-09-10T13:23:45.278Z,3.67
2018-09-10T13:26:14.192Z,3.87
2018-09-10T13:28:47.466Z,4.10
2018-09-10T13:31:17.363Z,4.77
2018-09-10T13:33:47.500Z,4.20
2018-09-10T13:36:17.266Z,4.07
2018-09-10T13:38:46.327Z,4.27
2018-09-10T13:41:15.190Z,5.03
2018-09-10T13:43:44.364Z,4.07
2018-09-10T13:46:13.560Z,5.77
2018-09-10T13:48:42.423Z,4.33
2018-09-10T13:51:11.218Z,4.13
2018-09-10T13:53:40.197Z,3.80
2018-09-10T13:56:09.041Z,4.30
2018-09-10T13:58:37.981Z,4.00
2018-09-10T14:01:06.876Z,3.93
2018-09-10T14:03:35.854Z,4.03
2018-09-10T14:06:04.933Z,3.90
2018-09-10T14:08:33.995Z,4.20
2018-09-10T14:11:03.189Z,3.80
2018-09-10T14:13:32.270Z,4.00
2018-09-10T14:16:01.387Z,4.10
2018-09-10T14:18:30.535Z,4.33
2018-09-10T14:20:59.698Z,3.80
2018-09-10T14:23:28.812Z,4.07
2018-09-10T14:25:58.121Z,3.70
2018-09-10T14:28:27.484Z,4.67
2018-09-10T14:30:56.557Z,3.70
2018-09-10T14:33:25.504Z,4.50
2018-09-10T14:35:55.768Z,4.13
2018-09-10T14:38:24.842Z,3.97
2018-09-10T14:40:53.811Z,3.83
2018-09-10T14:43:22.780Z,4.30
2018-09-10T14:45:52.492Z,3.50
2018-09-10T14:48:21.719Z,4.30
2018-09-10T14:50:50.798Z,4.53
2018-09-10T14:53:20.072Z,3.67
2018-09-10T14:55:49.085Z,4.27
2018-09-10T14:58:18.173Z,4.30
2018-09-10T15:00:47.215Z,4.13
2018-09-10T15:03:16.105Z,3.60
2018-09-10T15:05:44.969Z,4.40
2018-09-10T15:08:13.841Z,4.30
2018-09-10T15:10:42.828Z,4.13
2018-09-10T15:13:11.772Z,4.00
2018-09-10T15:15:40.813Z,3.80
2018-09-10T15:18:09.678Z,4.50
2018-09-10T15:20:38.583Z,3.80
2018-09-10T15:23:07.642Z,4.10
2018-09-10T15:25:36.385Z,4.37
2018-09-10T15:28:05.472Z,4.83
2018-09-10T15:30:34.599Z,4.23
2018-09-10T15:33:03.417Z,4.07
2018-09-10T15:35:32.251Z,4.43
2018-09-10T15:38:01.112Z,4.03
2018-09-10T15:40:30.447Z,4.00
2018-09-10T15:42:59.192Z,3.90
2018-09-10T15:45:28.009Z,4.20
2018-09-10T15:47:56.984Z,4.53
2018-09-10T15:50:25.795Z,4.80
2018-09-10T15:52:54.983Z,4.33
2018-09-10T15:55:23.819Z,4.10
2018-09-10T15:57:52.648Z,3.67
2018-09-10T16:00:21.514Z,4.20
2018-09-10T16:02:50.433Z,4.53
2018-09-10T16:05:19.505Z,4.43
2018-09-10T16:07:48.867Z,4.30
2018-09-10T16:10:18.535Z,3.83
2018-09-10T16:12:47.344Z,3.87
2018-09-10T16:15:16.176Z,3.80
2018-09-10T16:17:45.150Z,3.90
2018-09-10T16:20:13.958Z,4.40
2018-09-10T16:22:42.746Z,4.73
2018-09-10T16:25:11.604Z,4.53
2018-09-10T16:27:41.515Z,3.57
2018-09-10T16:30:10.516Z,4.27
2018-09-10T16:32:39.321Z,3.77
2018-09-10T16:35:08.059Z,4.10
2018-09-10T16:37:37.114Z,3.80
2018-09-10T16:40:06.400Z,4.40
2018-09-10T16:42:35.398Z,4.10
2018-09-10T16:45:04.184Z,4.00
2018-09-10T16:47:32.976Z,4.57
2018-09-10T16:50:01.877Z,4.83
2018-09-10T16:52:30.703Z,4.17
2018-09-10T16:54:59.976Z,4.73
2018-09-10T16:57:28.898Z,4.10
2018-09-10T16:59:57.707Z,4.00
2018-09-10T17:02:26.553Z,4.57
2018-09-10T17:04:55.311Z,4.67
2018-09-10T17:07:24.303Z,4.00
2018-09-10T17:09:53.093Z,3.80
2018-09-10T17:12:22.039Z,4.50
2018-09-10T17:14:50.942Z,4.70
2018-09-10T17:17:19.709Z,3.97
2018-09-10T17:19:53.507Z,3.93
2018-09-10T17:22:22.409Z,4.20
2018-09-10T17:24:51.272Z,4.57
2018-09-10T17:27:20.069Z,3.83
2018-09-10T17:29:48.907Z,4.00
2018-09-10T17:32:18.948Z,4.30
2018-09-10T17:34:47.714Z,4.27
2018-09-10T17:37:16.626Z,4.73
2018-09-10T17:39:45.540Z,4.20
2018-09-10T17:42:14.330Z,4.70
2018-09-10T17:44:43.239Z,5.20
2018-09-10T17:47:12.226Z,4.53
2018-09-10T17:49:41.803Z,5.63
2018-09-10T17:52:10.757Z,5.17
2018-09-10T17:54:39.788Z,4.20
2018-09-10T17:57:08.675Z,4.47
2018-09-10T17:59:37.421Z,5.13
2018-09-10T18:02:06.241Z,5.20
2018-09-10T18:04:35.119Z,5.47
2018-09-10T18:07:03.968Z,5.77
2018-09-10T18:09:34.231Z,4.73
2018-09-10T18:12:04.024Z,5.00
2018-09-10T18:14:34.182Z,5.13
2018-09-10T18:17:03.067Z,5.20
2018-09-10T18:19:31.809Z,4.67
2018-09-10T18:22:00.659Z,5.27
2018-09-10T18:24:31.776Z,4.90
2018-09-10T18:27:01.099Z,5.10
2018-09-10T18:29:29.866Z,5.33
2018-09-10T18:31:58.597Z,5.07
2018-09-10T18:34:27.561Z,6.50
2018-09-10T18:36:56.377Z,5.23
2018-09-10T18:39:25.342Z,5.50
2018-09-10T18:41:54.101Z,4.87
2018-09-10T18:44:22.875Z,5.47
2018-09-10T18:46:51.776Z,5.40
2018-09-10T18:49:20.609Z,5.83
2018-09-10T18:51:49.543Z,5.97
2018-09-10T18:54:18.488Z,6.03
2018-09-10T18:56:47.332Z,6.07
2018-09-10T18:59:16.497Z,5.23
2018-09-10T19:01:45.358Z,5.60
2018-09-10T19:04:14.171Z,4.97
2018-09-10T19:06:43.038Z,5.53
2018-09-10T19:09:12.308Z,5.63
2018-09-10T19:11:41.411Z,5.53
2018-09-10T19:14:10.653Z,5.73
2018-09-10T19:16:39.462Z,5.90
2018-09-10T19:19:08.420Z,5.40
2018-09-10T19:21:37.271Z,6.00
2018-09-10T19:24:07.122Z,4.90
2018-09-10T19:26:36.182Z,6.00
2018-09-10T19:29:04.979Z,5.60
2018-09-10T19:31:34.195Z,5.27
2018-09-10T19:34:03.083Z,5.30
2018-09-10T19:36:32.009Z,5.40
2018-09-10T19:39:00.875Z,4.73
2018-09-10T19:41:29.695Z,4.77
2018-09-10T19:43:58.498Z,5.63
2018-09-10T19:46:28.014Z,4.97
2018-09-10T19:48:57.056Z,5.77
2018-09-10T19:51:26.806Z,5.30
2018-09-10T19:53:56.041Z,4.90
2018-09-10T19:56:28.042Z,4.50
2018-09-10T19:58:57.343Z,4.37
2018-09-10T20:01:26.715Z,5.00
2018-09-10T20:03:55.663Z,5.07
2018-09-10T20:06:25.144Z,4.80
2018-09-10T20:08:54.045Z,5.10
2018-09-10T20:11:23.145Z,4.27
2018-09-10T20:13:52.332Z,5.40
2018-09-10T20:16:22.175Z,5.43
2018-09-10T20:18:51.055Z,4.30
2018-09-10T20:21:20.019Z,4.47
2018-09-10T20:23:49.397Z,4.20
2018-09-10T20:26:18.686Z,4.60
2018-09-10T20:28:48.451Z,5.07
2018-09-10T20:31:17.387Z,4.13
2018-09-10T20:33:51.629Z,4.23
2018-09-10T20:36:20.857Z,5.00
2018-09-10T20:38:50.487Z,4.80
2018-09-10T20:41:19.471Z,4.80
2018-09-10T20:43:48.501Z,4.67
2018-09-10T20:46:17.882Z,5.00
2018-09-10T20:48:46.829Z,4.60
2018-09-10T20:51:15.959Z,4.50
2018-09-10T20:53:45.030Z,4.30
2018-09-10T20:56:14.038Z,4.60
2018-09-10T20:58:43.082Z,4.63
2018-09-10T21:01:12.373Z,4.30
2018-09-10T21:03:41.479Z,3.90
2018-09-10T21:06:10.400Z,4.30
2018-09-10T21:08:39.235Z,4.10
2018-09-10T21:11:08.419Z,4.10
2018-09-10T21:13:37.255Z,4.50
2018-09-10T21:16:06.213Z,4.27
2018-09-10T21:18:35.348Z,4.40
2018-09-10T21:21:04.136Z,3.67
2018-09-10T21:23:32.992Z,4.30
2018-09-10T21:26:01.819Z,3.27
2018-09-10T21:28:31.141Z,4.23
2018-09-10T21:31:00.124Z,4.13
2018-09-10T21:33:29.048Z,3.93
2018-09-10T21:35:58.284Z,4.17
2018-09-10T21:38:27.099Z,4.20
2018-09-10T21:40:55.928Z,4.90
2018-09-10T21:43:24.711Z,3.70
2018-09-10T21:45:53.851Z,4.77
2018-09-10T21:48:22.658Z,4.13
2018-09-10T21:50:51.414Z,3.97
2018-09-10T21:53:20.233Z,4.40
2018-09-10T21:55:49.018Z,4.63
2018-09-10T21:58:17.887Z,3.90
2018-09-10T22:00:52.131Z,4.60
2018-09-10T22:03:21.377Z,4.97
2018-09-10T22:05:50.475Z,3.90
2018-09-10T22:08:19.407Z,5.53
2018-09-10T22:10:48.277Z,3.87
2018-09-10T22:13:17.157Z,4.60
2018-09-10T22:15:46.146Z,4.80
2018-09-10T22:18:14.978Z,5.07
2018-09-10T22:20:44.215Z,4.53
2018-09-10T22:23:13.103Z,5.03
2018-09-10T22:25:42.028Z,4.60
2018-09-10T22:28:11.057Z,5.63
2018-09-10T22:30:39.958Z,4.97
2018-09-10T22:33:08.845Z,5.37
2018-09-10T22:35:37.887Z,4.77
2018-09-10T22:38:06.763Z,5.33
2018-09-10T22:40:35.620Z,4.80
2018-09-10T22:43:04.456Z,4.70
2018-09-10T22:45:33.256Z,5.17
2018-09-10T22:48:02.025Z,4.70
2018-09-10T22:50:30.862Z,5.20
2018-09-10T22:52:59.775Z,5.97
2018-09-10T22:55:28.565Z,5.90
2018-09-10T22:57:57.347Z,5.70
2018-09-10T23:00:26.153Z,5.40
2018-09-10T23:02:54.938Z,5.13
2018-09-10T23:05:24.004Z,5.07
2018-09-10T23:07:52.804Z,5.00
2018-09-10T23:10:21.587Z,5.23
2018-09-10T23:12:50.575Z,5.73
2018-09-10T23:15:19.374Z,4.70
2018-09-10T23:17:48.284Z,5.87
2018-09-10T23:20:17.063Z,5.10
2018-09-10T23:22:45.860Z,5.07
2018-09-10T23:25:14.686Z,4.93
2018-09-10T23:27:43.471Z,4.73
2018-09-10T23:30:12.387Z,5.30
2018-09-10T23:32:41.382Z,5.40
2018-09-10T23:35:10.194Z,4.60
2018-09-10T23:37:39.418Z,4.80
2018-09-10T23:40:08.266Z,5.50
2018-09-10T23:42:37.189Z,5.40
2018-09-10T23:45:06.187Z,4.97
2018-09-10T23:47:34.985Z,5.47
2018-09-10T23:50:03.866Z,4.60
2018-09-10T23:52:32.585Z,5.83
2018-09-10T23:55:01.513Z,4.73
2018-09-10T23:57:30.347Z,5.20
2018-09-10T23:59:59.151Z,5.40
